TJSJ/SJU METAR and TAF weather

Enter ICAO airport designator
Station Type Date Time Source
TJSJ METAR 2021/05/10 01:56 UTC NOAA

TJSJ 100156Z 09007KT 10SM FEW018 SCT025 SCT055 26/25 A3013 RMK AO2 RAB00E34 SLP200 P0001 T02610250 $


Station Type Date Time Source
TJSJ Decoded METAR 2021/05/10 01:56 UTC NOAA

San Juan, Luis Munoz Marin International Airport, PR, United States (TJSJ) 18-27N 066-00W
May 09, 2021 - 09:56 PM EDT / 2021.05.10 0156 UTC
Wind: from the E (090 degrees) at 8 MPH (7 KT):0
Visibility: 10 mile(s):0
Sky conditions: partly cloudy
Precipitation last hour: 0.01 inches
Temperature: 79.0 F (26.1 C)
Dew Point: 77.0 F (25.0 C)
Relative Humidity: 93%
Pressure (altimeter): 30.13 in. Hg (1020 hPa)
ob: TJSJ 100156Z 09007KT 10SM FEW018 SCT025 SCT055 26/25 A3013 RMK AO2 RAB00E34 SLP200 P0001 T02610250
cycle: 2

Station Type Date Time Source
TJSJ TAF 2021/05/09 18:30 UTC NOAA

TAF TJSJ 091726Z 0918/1018 08016KT P6SM VCSH SCT025 SCT040 SCT050
FM092300 07011KT P6SM VCSH SCT025 SCT040 SCT060
FM101000 09013G23KT P6SM VCSH SCT025 BKN040

Example: see airport list